sensor_id;sensor_type;location;lat;lon;timestamp;pressure;altitude;pressure_sealevel;temperature;humidity
19843;BME280;10082;51.038;6.992;2022-08-21T00:00:28;112171.53;;;-144.33;100.00
19843;BME280;10082;51.038;6.992;2022-08-21T00:02:59;112171.53;;;-144.33;100.00
19843;BME280;10082;51.038;6.992;2022-08-21T00:05:27;112171.53;;;-144.33;100.00
19843;BME280;10082;51.038;6.992;2022-08-21T00:07:55;112171.53;;;-144.33;100.00
19843;BME280;10082;51.038;6.992;2022-08-21T00:10:21;112171.53;;;-144.33;100.00
19843;BME280;10082;51.038;6.992;2022-08-21T00:12:48;112171.53;;;-144.33;100.00
19843;BME280;10082;51.038;6.992;2022-08-21T00:15:20;112171.53;;;-144.33;100.00
19843;BME280;10082;51.038;6.992;2022-08-21T00:17:47;112171.53;;;-144.33;100.00
19843;BME280;10082;51.038;6.992;2022-08-21T00:20:15;112171.53;;;-144.33;100.00
19843;BME280;10082;51.038;6.992;2022-08-21T00:22:42;112171.53;;;-144.33;100.00
19843;BME280;10082;51.038;6.992;2022-08-21T00:25:10;112171.53;;;-144.33;100.00
19843;BME280;10082;51.038;6.992;2022-08-21T00:27:37;112171.53;;;-144.33;100.00
19843;BME280;10082;51.038;6.992;2022-08-21T00:30:05;112171.53;;;-144.33;100.00
19843;BME280;10082;51.038;6.992;2022-08-21T00:32:36;112171.53;;;-144.33;100.00
19843;BME280;10082;51.038;6.992;2022-08-21T00:35:04;112171.53;;;-144.33;100.00
19843;BME280;10082;51.038;6.992;2022-08-21T00:37:31;112171.53;;;-144.33;100.00
19843;BME280;10082;51.038;6.992;2022-08-21T00:39:58;112171.53;;;-144.33;100.00
19843;BME280;10082;51.038;6.992;2022-08-21T00:42:25;112171.53;;;-144.33;100.00
19843;BME280;10082;51.038;6.992;2022-08-21T00:44:51;112171.53;;;-144.33;100.00
19843;BME280;10082;51.038;6.992;2022-08-21T00:47:19;112171.53;;;-144.33;100.00
19843;BME280;10082;51.038;6.992;2022-08-21T00:49:47;112171.53;;;-144.33;100.00
19843;BME280;10082;51.038;6.992;2022-08-21T00:52:16;112171.53;;;-144.33;100.00
19843;BME280;10082;51.038;6.992;2022-08-21T00:54:44;112171.53;;;-144.33;100.00
19843;BME280;10082;51.038;6.992;2022-08-21T00:57:14;112171.53;;;-144.33;100.00
19843;BME280;10082;51.038;6.992;2022-08-21T00:59:44;112171.53;;;-144.33;100.00
19843;BME280;10082;51.038;6.992;2022-08-21T01:02:12;112171.53;;;-144.33;100.00
19843;BME280;10082;51.038;6.992;2022-08-21T01:04:39;112171.53;;;-144.33;100.00
19843;BME280;10082;51.038;6.992;2022-08-21T01:07:07;112171.53;;;-144.33;100.00
19843;BME280;10082;51.038;6.992;2022-08-21T01:09:35;112171.53;;;-144.33;100.00
19843;BME280;10082;51.038;6.992;2022-08-21T01:12:03;112171.53;;;-144.33;100.00
19843;BME280;10082;51.038;6.992;2022-08-21T01:14:30;112171.53;;;-144.33;100.00
19843;BME280;10082;51.038;6.992;2022-08-21T01:16:58;112171.53;;;-144.33;100.00
19843;BME280;10082;51.038;6.992;2022-08-21T01:19:26;112171.53;;;-144.33;100.00
19843;BME280;10082;51.038;6.992;2022-08-21T01:21:54;112171.53;;;-144.33;100.00
19843;BME280;10082;51.038;6.992;2022-08-21T01:24:21;112171.53;;;-144.33;100.00
19843;BME280;10082;51.038;6.992;2022-08-21T01:26:49;112171.53;;;-144.33;100.00
19843;BME280;10082;51.038;6.992;2022-08-21T01:29:23;112171.53;;;-144.33;100.00
19843;BME280;10082;51.038;6.992;2022-08-21T01:31:52;112171.53;;;-144.33;100.00
19843;BME280;10082;51.038;6.992;2022-08-21T01:34:18;112171.53;;;-144.33;100.00
19843;BME280;10082;51.038;6.992;2022-08-21T01:36:46;112171.53;;;-144.33;100.00
19843;BME280;10082;51.038;6.992;2022-08-21T01:39:15;112171.53;;;-144.33;100.00
19843;BME280;10082;51.038;6.992;2022-08-21T01:41:41;112171.53;;;-144.33;100.00
19843;BME280;10082;51.038;6.992;2022-08-21T01:44:08;112171.53;;;-144.33;100.00
19843;BME280;10082;51.038;6.992;2022-08-21T01:46:35;112171.53;;;-144.33;100.00
19843;BME280;10082;51.038;6.992;2022-08-21T01:49:03;112171.53;;;-144.33;100.00
19843;BME280;10082;51.038;6.992;2022-08-21T01:51:31;112171.53;;;-144.33;100.00
19843;BME280;10082;51.038;6.992;2022-08-21T01:53:57;112171.53;;;-144.33;100.00
19843;BME280;10082;51.038;6.992;2022-08-21T01:56:26;112171.53;;;-144.33;100.00
19843;BME280;10082;51.038;6.992;2022-08-21T01:58:53;112171.53;;;-144.33;100.00
19843;BME280;10082;51.038;6.992;2022-08-21T02:01:19;112171.53;;;-144.33;100.00
19843;BME280;10082;51.038;6.992;2022-08-21T02:03:46;112171.53;;;-144.33;100.00
19843;BME280;10082;51.038;6.992;2022-08-21T02:06:14;112171.53;;;-144.33;100.00
19843;BME280;10082;51.038;6.992;2022-08-21T02:08:43;112171.53;;;-144.33;100.00
19843;BME280;10082;51.038;6.992;2022-08-21T02:11:10;112171.53;;;-144.33;100.00
19843;BME280;10082;51.038;6.992;2022-08-21T02:13:38;112171.53;;;-144.33;100.00
19843;BME280;10082;51.038;6.992;2022-08-21T02:16:05;112171.53;;;-144.33;100.00
19843;BME280;10082;51.038;6.992;2022-08-21T02:18:33;112171.53;;;-144.33;100.00
19843;BME280;10082;51.038;6.992;2022-08-21T02:21:00;112171.53;;;-144.33;100.00
19843;BME280;10082;51.038;6.992;2022-08-21T02:23:27;112171.53;;;-144.33;100.00
19843;BME280;10082;51.038;6.992;2022-08-21T02:25:53;112171.53;;;-144.33;100.00
19843;BME280;10082;51.038;6.992;2022-08-21T02:28:20;112171.53;;;-144.33;100.00
19843;BME280;10082;51.038;6.992;2022-08-21T02:30:49;112171.53;;;-144.33;100.00
19843;BME280;10082;51.038;6.992;2022-08-21T02:33:17;112171.53;;;-144.33;100.00
19843;BME280;10082;51.038;6.992;2022-08-21T02:35:45;112171.53;;;-144.33;100.00
19843;BME280;10082;51.038;6.992;2022-08-21T02:38:15;112171.53;;;-144.33;100.00
19843;BME280;10082;51.038;6.992;2022-08-21T02:40:46;112171.53;;;-144.33;100.00
19843;BME280;10082;51.038;6.992;2022-08-21T02:43:13;112171.53;;;-144.33;100.00
19843;BME280;10082;51.038;6.992;2022-08-21T02:45:42;112171.53;;;-144.33;100.00
19843;BME280;10082;51.038;6.992;2022-08-21T02:48:13;112171.53;;;-144.33;100.00
19843;BME280;10082;51.038;6.992;2022-08-21T02:50:43;112171.53;;;-144.33;100.00
19843;BME280;10082;51.038;6.992;2022-08-21T02:53:12;112171.53;;;-144.33;100.00
19843;BME280;10082;51.038;6.992;2022-08-21T02:55:42;112171.53;;;-144.33;100.00
19843;BME280;10082;51.038;6.992;2022-08-21T02:58:10;112171.53;;;-144.33;100.00
19843;BME280;10082;51.038;6.992;2022-08-21T03:00:38;112171.53;;;-144.33;100.00
19843;BME280;10082;51.038;6.992;2022-08-21T03:03:05;112171.53;;;-144.33;100.00
19843;BME280;10082;51.038;6.992;2022-08-21T03:05:35;112171.53;;;-144.33;100.00
19843;BME280;10082;51.038;6.992;2022-08-21T03:08:05;112171.53;;;-144.33;100.00
19843;BME280;10082;51.038;6.992;2022-08-21T03:10:34;112171.53;;;-144.33;100.00
19843;BME280;10082;51.038;6.992;2022-08-21T03:13:01;112171.53;;;-144.33;100.00
19843;BME280;10082;51.038;6.992;2022-08-21T03:15:29;112171.53;;;-144.33;100.00
19843;BME280;10082;51.038;6.992;2022-08-21T03:17:56;112171.53;;;-144.33;100.00
19843;BME280;10082;51.038;6.992;2022-08-21T03:20:24;112171.53;;;-144.33;100.00
19843;BME280;10082;51.038;6.992;2022-08-21T03:22:53;112171.53;;;-144.33;100.00
19843;BME280;10082;51.038;6.992;2022-08-21T03:25:20;112171.53;;;-144.33;100.00
19843;BME280;10082;51.038;6.992;2022-08-21T03:27:48;112171.53;;;-144.33;100.00
19843;BME280;10082;51.038;6.992;2022-08-21T03:30:16;112171.53;;;-144.33;100.00
19843;BME280;10082;51.038;6.992;2022-08-21T03:32:43;112171.53;;;-144.33;100.00
19843;BME280;10082;51.038;6.992;2022-08-21T03:35:09;112171.53;;;-144.33;100.00
19843;BME280;10082;51.038;6.992;2022-08-21T03:37:36;112171.53;;;-144.33;100.00
19843;BME280;10082;51.038;6.992;2022-08-21T03:40:06;112171.53;;;-144.33;100.00
19843;BME280;10082;51.038;6.992;2022-08-21T03:42:33;112171.53;;;-144.33;100.00
19843;BME280;10082;51.038;6.992;2022-08-21T03:45:00;112171.53;;;-144.33;100.00
19843;BME280;10082;51.038;6.992;2022-08-21T03:47:27;112171.53;;;-144.33;100.00
19843;BME280;10082;51.038;6.992;2022-08-21T03:49:54;112171.53;;;-144.33;100.00
19843;BME280;10082;51.038;6.992;2022-08-21T03:52:21;112171.53;;;-144.33;100.00
19843;BME280;10082;51.038;6.992;2022-08-21T03:54:48;112171.53;;;-144.33;100.00
19843;BME280;10082;51.038;6.992;2022-08-21T03:57:17;112171.53;;;-144.33;100.00
19843;BME280;10082;51.038;6.992;2022-08-21T03:59:44;112171.53;;;-144.33;100.00
19843;BME280;10082;51.038;6.992;2022-08-21T04:02:12;112171.53;;;-144.33;100.00
19843;BME280;10082;51.038;6.992;2022-08-21T04:04:41;112171.53;;;-144.33;100.00
19843;BME280;10082;51.038;6.992;2022-08-21T04:07:08;112171.53;;;-144.33;100.00
19843;BME280;10082;51.038;6.992;2022-08-21T04:09:35;112171.53;;;-144.33;100.00
19843;BME280;10082;51.038;6.992;2022-08-21T04:12:02;112171.53;;;-144.33;100.00
19843;BME280;10082;51.038;6.992;2022-08-21T04:14:30;112171.53;;;-144.33;100.00
19843;BME280;10082;51.038;6.992;2022-08-21T04:16:58;112171.53;;;-144.33;100.00
19843;BME280;10082;51.038;6.992;2022-08-21T04:19:24;112171.53;;;-144.33;100.00
19843;BME280;10082;51.038;6.992;2022-08-21T04:21:51;112171.53;;;-144.33;100.00
19843;BME280;10082;51.038;6.992;2022-08-21T04:24:18;112171.53;;;-144.33;100.00
19843;BME280;10082;51.038;6.992;2022-08-21T04:26:45;112171.53;;;-144.33;100.00
19843;BME280;10082;51.038;6.992;2022-08-21T04:29:12;112171.53;;;-144.33;100.00
19843;BME280;10082;51.038;6.992;2022-08-21T04:31:40;112171.53;;;-144.33;100.00
19843;BME280;10082;51.038;6.992;2022-08-21T04:34:08;112171.53;;;-144.33;100.00
19843;BME280;10082;51.038;6.992;2022-08-21T04:36:35;112171.53;;;-144.33;100.00
19843;BME280;10082;51.038;6.992;2022-08-21T04:39:02;112171.53;;;-144.33;100.00
19843;BME280;10082;51.038;6.992;2022-08-21T04:41:29;112171.53;;;-144.33;100.00
19843;BME280;10082;51.038;6.992;2022-08-21T04:43:56;112171.53;;;-144.33;100.00
19843;BME280;10082;51.038;6.992;2022-08-21T04:46:23;112171.53;;;-144.33;100.00
19843;BME280;10082;51.038;6.992;2022-08-21T04:48:51;112171.53;;;-144.33;100.00
19843;BME280;10082;51.038;6.992;2022-08-21T04:51:24;112171.53;;;-144.33;100.00
19843;BME280;10082;51.038;6.992;2022-08-21T04:53:54;112171.53;;;-144.33;100.00
19843;BME280;10082;51.038;6.992;2022-08-21T04:56:24;112171.53;;;-144.33;100.00
19843;BME280;10082;51.038;6.992;2022-08-21T04:58:53;112171.53;;;-144.33;100.00
19843;BME280;10082;51.038;6.992;2022-08-21T05:01:24;112171.53;;;-144.33;100.00
19843;BME280;10082;51.038;6.992;2022-08-21T05:03:55;112171.53;;;-144.33;100.00
19843;BME280;10082;51.038;6.992;2022-08-21T05:06:23;112171.53;;;-144.33;100.00
19843;BME280;10082;51.038;6.992;2022-08-21T05:08:52;112171.53;;;-144.33;100.00
19843;BME280;10082;51.038;6.992;2022-08-21T05:11:20;112171.53;;;-144.33;100.00
19843;BME280;10082;51.038;6.992;2022-08-21T05:13:47;112171.53;;;-144.33;100.00
19843;BME280;10082;51.038;6.992;2022-08-21T05:16:14;112171.53;;;-144.33;100.00
19843;BME280;10082;51.038;6.992;2022-08-21T05:18:42;112171.53;;;-144.33;100.00
19843;BME280;10082;51.038;6.992;2022-08-21T05:21:10;112171.53;;;-144.33;100.00
19843;BME280;10082;51.038;6.992;2022-08-21T05:23:37;112171.53;;;-144.33;100.00
19843;BME280;10082;51.038;6.992;2022-08-21T05:26:03;112171.53;;;-144.33;100.00
19843;BME280;10082;51.038;6.992;2022-08-21T05:28:30;112171.53;;;-144.33;100.00
19843;BME280;10082;51.038;6.992;2022-08-21T05:30:57;112171.53;;;-144.33;100.00
19843;BME280;10082;51.038;6.992;2022-08-21T05:33:24;112171.53;;;-144.33;100.00
19843;BME280;10082;51.038;6.992;2022-08-21T05:35:52;112171.53;;;-144.33;100.00
19843;BME280;10082;51.038;6.992;2022-08-21T05:38:22;112171.53;;;-144.33;100.00
19843;BME280;10082;51.038;6.992;2022-08-21T05:40:50;112171.53;;;-144.33;100.00
19843;BME280;10082;51.038;6.992;2022-08-21T05:43:17;112171.53;;;-144.33;100.00
19843;BME280;10082;51.038;6.992;2022-08-21T05:45:43;112171.53;;;-144.33;100.00
19843;BME280;10082;51.038;6.992;2022-08-21T05:48:12;112171.53;;;-144.33;100.00
19843;BME280;10082;51.038;6.992;2022-08-21T05:50:39;112171.53;;;-144.33;100.00
19843;BME280;10082;51.038;6.992;2022-08-21T05:53:07;112171.53;;;-144.33;100.00
19843;BME280;10082;51.038;6.992;2022-08-21T05:55:37;112171.53;;;-144.33;100.00
19843;BME280;10082;51.038;6.992;2022-08-21T05:58:04;112171.53;;;-144.33;100.00
19843;BME280;10082;51.038;6.992;2022-08-21T06:00:31;112171.53;;;-144.33;100.00
19843;BME280;10082;51.038;6.992;2022-08-21T06:02:59;112171.53;;;-144.33;100.00
19843;BME280;10082;51.038;6.992;2022-08-21T06:05:26;112171.53;;;-144.33;100.00
19843;BME280;10082;51.038;6.992;2022-08-21T06:07:52;112171.53;;;-144.33;100.00
19843;BME280;10082;51.038;6.992;2022-08-21T06:10:19;112171.53;;;-144.33;100.00
19843;BME280;10082;51.038;6.992;2022-08-21T06:12:52;112171.53;;;-144.33;100.00
19843;BME280;10082;51.038;6.992;2022-08-21T06:15:19;112171.53;;;-144.33;100.00
19843;BME280;10082;51.038;6.992;2022-08-21T06:17:46;112171.53;;;-144.33;100.00
19843;BME280;10082;51.038;6.992;2022-08-21T06:20:12;112171.53;;;-144.33;100.00
19843;BME280;10082;51.038;6.992;2022-08-21T06:22:39;112171.53;;;-144.33;100.00
19843;BME280;10082;51.038;6.992;2022-08-21T06:25:06;112171.53;;;-144.33;100.00
19843;BME280;10082;51.038;6.992;2022-08-21T06:27:34;112171.53;;;-144.33;100.00
19843;BME280;10082;51.038;6.992;2022-08-21T06:30:02;112171.53;;;-144.33;100.00
19843;BME280;10082;51.038;6.992;2022-08-21T06:32:29;112171.53;;;-144.33;100.00
19843;BME280;10082;51.038;6.992;2022-08-21T06:34:56;112171.53;;;-144.33;95.15
19843;BME280;10082;51.038;6.992;2022-08-21T06:37:23;112171.53;;;-144.33;89.49
19843;BME280;10082;51.038;6.992;2022-08-21T06:39:49;112171.53;;;-144.33;86.57
19843;BME280;10082;51.038;6.992;2022-08-21T06:42:16;112171.53;;;-144.33;82.66
19843;BME280;10082;51.038;6.992;2022-08-21T06:44:43;112171.53;;;-144.33;78.41
19843;BME280;10082;51.038;6.992;2022-08-21T06:47:11;112171.53;;;-144.33;74.73
19843;BME280;10082;51.038;6.992;2022-08-21T06:49:38;112171.53;;;-144.33;73.27
19843;BME280;10082;51.038;6.992;2022-08-21T06:52:08;112171.53;;;-144.33;71.96
19843;BME280;10082;51.038;6.992;2022-08-21T06:54:35;112171.53;;;-144.33;69.56
19843;BME280;10082;51.038;6.992;2022-08-21T06:57:02;112171.53;;;-144.33;67.67
19843;BME280;10082;51.038;6.992;2022-08-21T06:59:29;112171.53;;;-144.33;66.16
19843;BME280;10082;51.038;6.992;2022-08-21T07:01:55;112171.53;;;-144.33;63.86
19843;BME280;10082;51.038;6.992;2022-08-21T07:04:23;112171.53;;;-144.33;61.87
19843;BME280;10082;51.038;6.992;2022-08-21T07:06:50;112171.53;;;-144.33;60.77
19843;BME280;10082;51.038;6.992;2022-08-21T07:09:17;112171.53;;;-144.33;59.19
19843;BME280;10082;51.038;6.992;2022-08-21T07:11:44;112171.53;;;-144.33;58.92
19843;BME280;10082;51.038;6.992;2022-08-21T07:14:13;112171.53;;;-144.33;55.76
19843;BME280;10082;51.038;6.992;2022-08-21T07:16:40;112171.53;;;-144.33;57.01
19843;BME280;10082;51.038;6.992;2022-08-21T07:19:07;112171.53;;;-144.33;54.06
19843;BME280;10082;51.038;6.992;2022-08-21T07:21:35;112171.53;;;-144.33;51.85
19843;BME280;10082;51.038;6.992;2022-08-21T07:24:02;112171.53;;;-144.33;49.33
19843;BME280;10082;51.038;6.992;2022-08-21T07:26:29;112171.53;;;-144.33;47.76
19843;BME280;10082;51.038;6.992;2022-08-21T07:28:56;112171.53;;;-144.33;47.55
19843;BME280;10082;51.038;6.992;2022-08-21T07:31:24;112171.53;;;-144.33;46.39
19843;BME280;10082;51.038;6.992;2022-08-21T07:33:51;112171.53;;;-144.33;46.03
19843;BME280;10082;51.038;6.992;2022-08-21T07:36:18;112171.53;;;-144.33;46.92
19843;BME280;10082;51.038;6.992;2022-08-21T07:38:46;112171.53;;;-144.33;48.23
19843;BME280;10082;51.038;6.992;2022-08-21T07:41:15;112171.53;;;-144.33;46.78
19843;BME280;10082;51.038;6.992;2022-08-21T07:43:43;112171.53;;;-144.33;44.79
19843;BME280;10082;51.038;6.992;2022-08-21T07:46:10;112171.53;;;-144.33;45.64
19843;BME280;10082;51.038;6.992;2022-08-21T07:48:38;112171.53;;;-144.33;44.57
19843;BME280;10082;51.038;6.992;2022-08-21T07:51:08;112171.53;;;-144.33;44.39
19843;BME280;10082;51.038;6.992;2022-08-21T07:53:36;112171.53;;;-144.33;43.43
19843;BME280;10082;51.038;6.992;2022-08-21T07:56:06;112171.53;;;-144.33;46.22
19843;BME280;10082;51.038;6.992;2022-08-21T07:58:33;112171.53;;;-144.33;48.22
19843;BME280;10082;51.038;6.992;2022-08-21T08:01:00;112171.53;;;-144.33;48.60
19843;BME280;10082;51.038;6.992;2022-08-21T08:03:27;112171.53;;;-144.33;48.88
19843;BME280;10082;51.038;6.992;2022-08-21T08:05:53;112171.53;;;-144.33;45.36
19843;BME280;10082;51.038;6.992;2022-08-21T08:08:20;112171.53;;;-144.33;46.38
19843;BME280;10082;51.038;6.992;2022-08-21T08:10:47;112171.53;;;-144.33;43.41
19843;BME280;10082;51.038;6.992;2022-08-21T08:13:16;112171.53;;;-144.33;43.16
19843;BME280;10082;51.038;6.992;2022-08-21T08:15:43;112171.53;;;-144.33;43.18
19843;BME280;10082;51.038;6.992;2022-08-21T08:18:10;112171.53;;;-144.33;41.82
19843;BME280;10082;51.038;6.992;2022-08-21T08:20:36;112171.53;;;-144.33;41.14
19843;BME280;10082;51.038;6.992;2022-08-21T08:23:03;112171.53;;;-144.33;40.26
19843;BME280;10082;51.038;6.992;2022-08-21T08:25:30;112171.53;;;-144.33;41.74
19843;BME280;10082;51.038;6.992;2022-08-21T08:27:57;112171.53;;;-144.33;40.50
19843;BME280;10082;51.038;6.992;2022-08-21T08:30:25;112171.53;;;-144.33;40.65
19843;BME280;10082;51.038;6.992;2022-08-21T08:32:51;112171.53;;;-144.33;41.49
19843;BME280;10082;51.038;6.992;2022-08-21T08:35:18;112171.53;;;-144.33;41.57
19843;BME280;10082;51.038;6.992;2022-08-21T08:37:45;112171.53;;;-144.33;39.61
19843;BME280;10082;51.038;6.992;2022-08-21T08:40:14;112171.53;;;-144.33;40.55
19843;BME280;10082;51.038;6.992;2022-08-21T08:42:46;112171.53;;;-144.33;39.08
19843;BME280;10082;51.038;6.992;2022-08-21T08:45:18;112171.53;;;-144.33;41.65
19843;BME280;10082;51.038;6.992;2022-08-21T08:47:51;112171.53;;;-144.33;43.44
19843;BME280;10082;51.038;6.992;2022-08-21T08:50:26;112171.53;;;-144.33;43.64
19843;BME280;10082;51.038;6.992;2022-08-21T08:52:59;112171.53;;;-144.33;43.98
19843;BME280;10082;51.038;6.992;2022-08-21T08:55:32;112171.53;;;-144.33;43.79
19843;BME280;10082;51.038;6.992;2022-08-21T08:57:59;112171.53;;;-144.33;42.85
19843;BME280;10082;51.038;6.992;2022-08-21T09:00:28;112171.53;;;-144.33;43.00
19843;BME280;10082;51.038;6.992;2022-08-21T09:02:58;112171.53;;;-144.33;43.51
19843;BME280;10082;51.038;6.992;2022-08-21T09:05:28;112171.53;;;-144.33;42.71
19843;BME280;10082;51.038;6.992;2022-08-21T09:08:14;112171.53;;;-144.33;41.74
19843;BME280;10082;51.038;6.992;2022-08-21T09:10:49;112171.53;;;-144.33;38.40
19843;BME280;10082;51.038;6.992;2022-08-21T09:13:21;112171.53;;;-144.33;39.13
19843;BME280;10082;51.038;6.992;2022-08-21T09:15:56;112171.53;;;-144.33;40.35
19843;BME280;10082;51.038;6.992;2022-08-21T09:18:35;112171.53;;;-144.33;40.72
19843;BME280;10082;51.038;6.992;2022-08-21T09:21:16;112171.53;;;-144.33;39.20
19843;BME280;10082;51.038;6.992;2022-08-21T09:23:51;112171.53;;;-144.33;38.56
19843;BME280;10082;51.038;6.992;2022-08-21T09:26:20;112171.53;;;-144.33;37.43
19843;BME280;10082;51.038;6.992;2022-08-21T09:28:52;112171.53;;;-144.33;38.92
19843;BME280;10082;51.038;6.992;2022-08-21T09:31:22;112171.53;;;-144.33;39.53
19843;BME280;10082;51.038;6.992;2022-08-21T09:33:57;112171.53;;;-144.33;41.62
19843;BME280;10082;51.038;6.992;2022-08-21T09:36:33;112171.53;;;-144.33;40.53
19843;BME280;10082;51.038;6.992;2022-08-21T09:39:00;112171.53;;;-144.33;39.52
19843;BME280;10082;51.038;6.992;2022-08-21T09:41:29;112171.53;;;-144.33;41.06
19843;BME280;10082;51.038;6.992;2022-08-21T09:43:56;112171.53;;;-144.33;38.71
19843;BME280;10082;51.038;6.992;2022-08-21T09:46:25;112171.53;;;-144.33;38.88
19843;BME280;10082;51.038;6.992;2022-08-21T09:48:57;112171.53;;;-144.33;39.10
19843;BME280;10082;51.038;6.992;2022-08-21T09:51:27;112171.53;;;-144.33;39.26
19843;BME280;10082;51.038;6.992;2022-08-21T09:53:56;112171.53;;;-144.33;37.58
19843;BME280;10082;51.038;6.992;2022-08-21T09:56:29;112171.53;;;-144.33;38.65
19843;BME280;10082;51.038;6.992;2022-08-21T09:59:20;112171.53;;;-144.33;37.87
19843;BME280;10082;51.038;6.992;2022-08-21T10:05:50;112171.53;;;-144.33;40.03
19843;BME280;10082;51.038;6.992;2022-08-21T10:08:19;112171.53;;;-144.33;38.82
19843;BME280;10082;51.038;6.992;2022-08-21T10:10:51;112171.53;;;-144.33;39.68
19843;BME280;10082;51.038;6.992;2022-08-21T10:13:23;112171.53;;;-144.33;37.99
19843;BME280;10082;51.038;6.992;2022-08-21T10:15:58;112171.53;;;-144.33;37.38
19843;BME280;10082;51.038;6.992;2022-08-21T10:18:38;112171.53;;;-144.33;38.43
19843;BME280;10082;51.038;6.992;2022-08-21T10:21:13;112171.53;;;-144.33;36.18
19843;BME280;10082;51.038;6.992;2022-08-21T10:24:05;112171.53;;;-144.33;38.69
19843;BME280;10082;51.038;6.992;2022-08-21T10:26:46;112171.53;;;-144.33;37.78
19843;BME280;10082;51.038;6.992;2022-08-21T10:29:28;112171.53;;;-144.33;39.01
19843;BME280;10082;51.038;6.992;2022-08-21T10:32:09;112171.53;;;-144.33;38.61
19843;BME280;10082;51.038;6.992;2022-08-21T10:34:50;112171.53;;;-144.33;38.21
19843;BME280;10082;51.038;6.992;2022-08-21T10:37:27;112171.53;;;-144.33;37.89
19843;BME280;10082;51.038;6.992;2022-08-21T10:40:07;112171.53;;;-144.33;37.83
19843;BME280;10082;51.038;6.992;2022-08-21T10:42:49;112171.53;;;-144.33;36.23
19843;BME280;10082;51.038;6.992;2022-08-21T10:45:26;112171.53;;;-144.33;37.21
19843;BME280;10082;51.038;6.992;2022-08-21T10:48:03;112171.53;;;-144.33;36.30
19843;BME280;10082;51.038;6.992;2022-08-21T10:50:35;112171.53;;;-144.33;37.21
19843;BME280;10082;51.038;6.992;2022-08-21T10:53:17;112171.53;;;-144.33;35.36
19843;BME280;10082;51.038;6.992;2022-08-21T10:55:51;112171.53;;;-144.33;36.23
19843;BME280;10082;51.038;6.992;2022-08-21T10:58:27;112171.53;;;-144.33;35.87
19843;BME280;10082;51.038;6.992;2022-08-21T11:00:58;112171.53;;;-144.33;36.33
19843;BME280;10082;51.038;6.992;2022-08-21T11:03:32;112171.53;;;-144.33;37.04
19843;BME280;10082;51.038;6.992;2022-08-21T11:06:03;112171.53;;;-144.33;36.22
19843;BME280;10082;51.038;6.992;2022-08-21T11:08:39;112171.53;;;-144.33;35.63
19843;BME280;10082;51.038;6.992;2022-08-21T11:11:10;112171.53;;;-144.33;36.28
19843;BME280;10082;51.038;6.992;2022-08-21T11:13:42;112171.53;;;-144.33;36.81
19843;BME280;10082;51.038;6.992;2022-08-21T11:16:17;112171.53;;;-144.33;38.41
19843;BME280;10082;51.038;6.992;2022-08-21T11:18:50;112171.53;;;-144.33;37.69
19843;BME280;10082;51.038;6.992;2022-08-21T11:21:29;112171.53;;;-144.33;36.85
19843;BME280;10082;51.038;6.992;2022-08-21T11:24:03;112171.53;;;-144.33;34.67
19843;BME280;10082;51.038;6.992;2022-08-21T11:26:41;112171.53;;;-144.33;33.96
19843;BME280;10082;51.038;6.992;2022-08-21T11:29:13;112171.53;;;-144.33;33.22
19843;BME280;10082;51.038;6.992;2022-08-21T11:31:56;112171.53;;;-144.33;34.67
19843;BME280;10082;51.038;6.992;2022-08-21T11:34:36;112171.53;;;-144.33;35.67
19843;BME280;10082;51.038;6.992;2022-08-21T11:37:16;112171.53;;;-144.33;34.76
19843;BME280;10082;51.038;6.992;2022-08-21T11:40:03;112171.53;;;-144.33;33.81
19843;BME280;10082;51.038;6.992;2022-08-21T11:42:38;112171.53;;;-144.33;33.10
19843;BME280;10082;51.038;6.992;2022-08-21T11:45:20;112171.53;;;-144.33;32.22
19843;BME280;10082;51.038;6.992;2022-08-21T11:47:56;112171.53;;;-144.33;34.74
19843;BME280;10082;51.038;6.992;2022-08-21T11:50:28;112171.53;;;-144.33;33.40
19843;BME280;10082;51.038;6.992;2022-08-21T11:53:01;112171.53;;;-144.33;31.44
19843;BME280;10082;51.038;6.992;2022-08-21T11:55:36;112171.53;;;-144.33;31.95
19843;BME280;10082;51.038;6.992;2022-08-21T11:58:08;112171.53;;;-144.33;31.82
19843;BME280;10082;51.038;6.992;2022-08-21T12:00:44;112171.53;;;-144.33;32.60
19843;BME280;10082;51.038;6.992;2022-08-21T12:03:16;112171.53;;;-144.33;31.32
19843;BME280;10082;51.038;6.992;2022-08-21T12:05:53;112171.53;;;-144.33;32.97
19843;BME280;10082;51.038;6.992;2022-08-21T12:08:28;112171.53;;;-144.33;31.56
19843;BME280;10082;51.038;6.992;2022-08-21T12:11:04;112171.53;;;-144.33;35.21
19843;BME280;10082;51.038;6.992;2022-08-21T12:13:33;112171.53;;;-144.33;34.60
19843;BME280;10082;51.038;6.992;2022-08-21T12:18:33;112171.53;;;-144.33;35.15
19843;BME280;10082;51.038;6.992;2022-08-21T12:21:20;112171.53;;;-144.33;35.36
19843;BME280;10082;51.038;6.992;2022-08-21T12:23:57;112171.53;;;-144.33;35.87
19843;BME280;10082;51.038;6.992;2022-08-21T12:26:29;112171.53;;;-144.33;35.34
19843;BME280;10082;51.038;6.992;2022-08-21T12:29:11;112171.53;;;-144.33;33.79
19843;BME280;10082;51.038;6.992;2022-08-21T12:31:49;112171.53;;;-144.33;33.09
19843;BME280;10082;51.038;6.992;2022-08-21T12:34:17;112171.53;;;-144.33;32.33
19843;BME280;10082;51.038;6.992;2022-08-21T12:36:49;112171.53;;;-144.33;34.47
19843;BME280;10082;51.038;6.992;2022-08-21T12:39:22;112171.53;;;-144.33;34.09
19843;BME280;10082;51.038;6.992;2022-08-21T12:41:56;112171.53;;;-144.33;32.19
19843;BME280;10082;51.038;6.992;2022-08-21T12:44:29;112171.53;;;-144.33;33.61